Selmer, TN (38375)

6:59 AM CST on February 01, 2015 (GMT -0600)
City | Change Station
CLOSE
Current Station
Personal Weather Station
Location: Corinth, MS
Elevation: 435 ft
Nearby Weather Stations

Elev 435 ft 34.95 °N, 88.50 °W | Updated 14 minutes ago

Mostly Cloudy
Mostly Cloudy
48.6 °F
Feels Like 49 °F
N
3.0
Wind Variable Wind from SSE
Gusts 17.0 mph

Today
High -- | Low -- °F
--% Chance of Precip.
Yesterday
High -- | Low -- °F
Precip. -- in
6:53 AM 5:22 PM
Waxing Gibbous, 95% visible
Pressure 29.93 in
Visibility 8.0 miles
Clouds Scattered Clouds 2300 ft
Mostly Cloudy 2900 ft
Overcast 7000 ft
Windchill 49 °F
Dew Point 38 °F
Humidity 67%
Rainfall 0.00 in
Snow Depth Not available.
UV 0 out of 12
Pollen 1.90 out of 12
Air Quality Not available.
Flu Activity Not available.
METAR KMKL 011253Z AUTO 17008G18KT 8SM -RA SCT023 BKN029 OVC070 08/04 A2993 RMK AO2 SLP134 P0004 T00780044

More Conditions Fewer Conditions

Pressure 29.93 in
Visibility 8.0 miles
Clouds Scattered Clouds 2300 ft
Mostly Cloudy 2900 ft
Overcast 7000 ft
Windchill 49 °F
Dew Point 38 °F
Humidity 67%
Rainfall 0.00 in
Snow Depth Not available.
UV 0 out of 12
Pollen 1.90 out of 12
Air Quality Not available.
Flu Activity Not available.
METAR KMKL 011253Z AUTO 17008G18KT 8SM -RA SCT023 BKN029 OVC070 08/04 A2993 RMK AO2 SLP134 P0004 T00780044

More Conditions Fewer Conditions

10-Day Weather Forecast

Almanac

Astronomy

Feb. 01, 2015 Rise Set
Actual Time
Civil Twilight
Nautical Twilight
Astronomical Twilight
Moon
Length of Visible Light
Length of Day
Tomorrow will be .
, % of the Moon is Illuminated

Today's Extremes

State Highs State Lows

Community

WunderPhotos

Upload Photos

1,792,353 photos uploaded!

WunderBlogs® & News

Nearby

Air Quality

  Air Quality AQ Index Pollutant
Not available.

Snow Depth

Station Depth Elevation

Earthquake Activity

City Distance Mag. Time & Date
Minimum magnitude displayed is 2.5.

Coastal Water Temperatures

Place Temperature

Nearby Weather Stations